Time;durP1;ratioP1;P1;durP2;ratioP2;P2;SDS_P1;SDS_P2;PMS_P1;PMS_P2;Temp;Humidity;BMP_temperature;BMP_pressure;BME280_temperature;BME280_humidity;BME280_pressure;Samples;Min_cycle;Max_cycle;Signal;HPM_P1;HPM_P2
2021/12/22 11:50:47;;;;;;;1.70;1.60;;;;;;;0.89;100.00;102420.03;6269663;22;20020;-79
2021/12/22 11:53:12;;;;;;;1.90;1.80;;;;;;;0.85;100.00;102416.47;6275705;22;20090;-79
2021/12/22 11:55:45;;;;;;;1.33;1.23;;;;;;;0.93;100.00;102411.44;6275167;22;20160;-79
2021/12/22 11:58:22;;;;;;;1.40;1.30;;;;;;;1.08;100.00;102416.97;6277234;22;20012;-79
2021/12/22 12:00:50;;;;;;;1.75;1.40;;;;;;;1.18;100.00;102418.94;6275533;22;20031;-79
2021/12/22 12:03:21;;;;;;;1.48;1.38;;;;;;;1.15;100.00;102413.66;6275818;22;20008;-79
2021/12/22 12:06:21;;;;;;;1.70;1.60;;;;;;;1.17;100.00;102411.91;6275604;22;20562;-81
2021/12/22 12:08:50;;;;;;;1.60;1.50;;;;;;;1.26;100.00;102407.75;6227251;22;20049;-79
2021/12/22 12:11:47;;;;;;;1.23;1.13;;;;;;;1.24;100.00;102404.25;6274086;22;20000;-79
2021/12/22 12:14:37;;;;;;;1.75;1.50;;;;;;;1.28;100.00;102405.16;6275420;22;20008;-81
2021/12/22 12:23:32;;;;;;;1.30;1.20;;;;;;;1.50;100.00;102402.09;6274360;22;20080;-79
2021/12/22 12:26:03;;;;;;;1.45;1.35;;;;;;;1.67;100.00;102398.06;6274840;22;20003;-83
2021/12/22 12:28:30;;;;;;;1.67;1.58;;;;;;;1.86;100.00;102396.66;6275433;22;20004;-79
2021/12/22 12:31:00;;;;;;;1.83;1.73;;;;;;;1.87;100.00;102391.44;6276503;22;20016;-80
2021/12/22 12:33:33;;;;;;;1.40;1.30;;;;;;;1.90;100.00;102383.66;6276241;22;20010;-80
2021/12/22 12:36:01;;;;;;;3.33;1.20;;;;;;;2.07;100.00;102384.81;6275802;22;20031;-79
2021/12/22 12:38:41;;;;;;;1.45;1.33;;;;;;;1.98;100.00;102381.16;6275694;22;20039;-78
2021/12/22 12:41:28;;;;;;;1.90;1.80;;;;;;;1.98;100.00;102379.41;6276367;22;20004;-80
2021/12/22 12:44:00;;;;;;;1.17;1.15;;;;;;;1.88;100.00;102376.59;6276607;22;20018;-81
2021/12/22 12:46:39;;;;;;;0.93;0.93;;;;;;;1.89;100.00;102376.63;6276427;22;20006;-82
2021/12/22 12:49:04;;;;;;;1.52;1.42;;;;;;;1.77;100.00;102376.44;6277319;22;20083;-82
2021/12/22 12:51:32;;;;;;;0.98;0.98;;;;;;;2.25;100.00;102363.25;6275921;22;20011;-84
2021/12/22 12:54:09;;;;;;;1.85;1.75;;;;;;;2.47;100.00;102360.09;6275414;22;20094;-80
2021/12/22 12:56:37;;;;;;;0.85;0.85;;;;;;;2.34;100.00;102360.75;6275944;22;20037;-83
2021/12/22 12:59:11;;;;;;;0.88;0.88;;;;;;;2.35;100.00;102350.28;6274918;22;20007;-81
2021/12/22 13:04:28;;;;;;;1.25;1.17;;;;;;;2.34;100.00;102338.06;6275417;22;20039;-83
2021/12/22 13:07:00;;;;;;;0.60;0.60;;;;;;;2.47;100.00;102334.75;6277612;22;20008;-83
2021/12/22 13:09:43;;;;;;;1.45;1.35;;;;;;;2.44;100.00;102334.69;6277675;22;20268;-81
2021/12/22 13:17:57;;;;;;;1.10;1.08;;;;;;;2.20;100.00;102313.38;6278279;22;20470;-81
2021/12/22 16:44:35;;;;;;;1.70;1.60;;;;;;;-1.52;100.00;102127.06;6263104;22;20044;-89
2021/12/22 16:47:08;;;;;;;1.60;1.50;;;;;;;-1.59;100.00;102114.69;6280029;22;20008;-88
2021/12/22 16:49:33;;;;;;;2.60;2.42;;;;;;;-1.61;100.00;102113.78;6278711;22;20003;-85
2021/12/22 16:51:58;;;;;;;1.83;1.73;;;;;;;-1.63;100.00;102110.25;6278020;22;20000;-83
2021/12/22 16:54:24;;;;;;;2.15;2.05;;;;;;;-1.64;100.00;102111.97;6278967;22;20095;-84
2021/12/22 16:56:50;;;;;;;1.67;1.58;;;;;;;-1.64;100.00;102113.72;6276960;22;19999;-85
2021/12/22 16:59:31;;;;;;;2.70;2.53;;;;;;;-1.68;100.00;102115.34;6276950;22;20061;-84
2021/12/22 17:01:57;;;;;;;1.98;1.88;;;;;;;-1.75;100.00;102125.56;6278544;22;20031;-85
2021/12/22 17:04:26;;;;;;;2.47;2.38;;;;;;;-1.74;100.00;102124.72;6276938;22;20004;-85
2021/12/22 17:06:54;;;;;;;1.70;1.60;;;;;;;-1.87;100.00;102120.00;6277329;22;20134;-84
2021/12/22 17:09:19;;;;;;;2.22;2.13;;;;;;;-1.79;100.00;102128.91;6277070;22;20057;-84
2021/12/22 17:11:44;;;;;;;1.77;1.67;;;;;;;-1.88;100.00;102136.47;6277723;22;20399;-85
2021/12/22 17:14:10;;;;;;;1.95;1.85;;;;;;;-1.99;100.00;102137.88;6275619;22;20342;-85
2021/12/22 17:16:35;;;;;;;1.77;1.67;;;;;;;-2.07;100.00;102129.88;6277571;22;20077;-84
2021/12/22 17:19:03;;;;;;;1.80;1.70;;;;;;;-2.20;100.00;102127.75;6276917;22;19999;-85
2021/12/22 17:21:31;;;;;;;1.42;1.35;;;;;;;-2.29;100.00;102122.28;6277584;22;20154;-89
2021/12/22 17:24:03;;;;;;;2.47;2.38;;;;;;;-2.38;100.00;102128.94;6277405;22;20000;-81
2021/12/22 17:26:28;;;;;;;2.28;2.15;;;;;;;-2.40;100.00;102130.59;6277160;22;20012;-84
2021/12/22 17:28:53;;;;;;;1.80;1.70;;;;;;;-2.51;100.00;102118.97;6278393;22;20014;-83
2021/12/22 17:33:56;;;;;;;1.85;1.75;;;;;;;-2.54;100.00;102114.59;6308646;22;20351;-80
2021/12/22 17:36:21;;;;;;;2.38;2.28;;;;;;;-2.63;100.00;102110.81;6307096;22;20017;-80
2021/12/22 17:38:46;;;;;;;1.95;1.85;;;;;;;-2.70;100.00;102121.84;6307675;22;20388;-80
2021/12/22 17:41:13;;;;;;;1.83;1.73;;;;;;;-2.77;100.00;102114.72;6307474;22;20027;-82
2021/12/22 17:43:39;;;;;;;1.60;1.50;;;;;;;-2.83;100.00;102098.91;6306827;22;20010;-79
2021/12/22 17:46:05;;;;;;;1.75;1.65;;;;;;;-2.79;100.00;102100.78;6303606;22;20014;-79
2021/12/22 17:48:31;;;;;;;2.13;1.95;;;;;;;-2.72;100.00;102102.72;6307168;22;19995;-80
2021/12/22 17:50:58;;;;;;;1.85;1.75;;;;;;;-2.72;100.00;102098.41;6307858;22;20000;-80
2021/12/22 17:53:23;;;;;;;2.00;1.90;;;;;;;-2.68;100.00;102102.88;6308233;22;20331;-79
2021/12/22 17:55:49;;;;;;;3.00;2.80;;;;;;;-2.67;100.00;102090.75;6280762;22;20006;-80
2021/12/22 17:58:15;;;;;;;1.75;1.65;;;;;;;-2.68;100.00;102095.09;6307219;22;20383;-82
2021/12/22 18:00:43;;;;;;;1.55;1.45;;;;;;;-2.66;100.00;102093.41;6308604;22;20007;-84
2021/12/22 18:03:09;;;;;;;2.47;2.38;;;;;;;-2.71;100.00;102096.69;6307860;22;20090;-83
2021/12/22 18:05:40;;;;;;;2.10;2.00;;;;;;;-2.71;100.00;102091.50;6309008;22;20019;-91
2021/12/22 18:08:05;;;;;;;2.35;2.25;;;;;;;-2.70;100.00;102094.16;6308554;22;20027;-86
2021/12/22 18:10:39;;;;;;;1.83;1.73;;;;;;;-2.72;100.00;102076.72;6308989;22;20137;-84
2021/12/22 18:13:06;;;;;;;1.92;1.83;;;;;;;-2.63;100.00;102077.03;6307189;22;20011;-85
2021/12/22 18:15:40;;;;;;;2.10;1.90;;;;;;;-2.73;100.00;102077.56;6307210;22;20074;-86
2021/12/22 18:18:13;;;;;;;1.77;1.67;;;;;;;-2.70;100.00;102067.25;6304752;22;20378;-88
2021/12/22 18:20:38;;;;;;;2.38;2.28;;;;;;;-2.57;100.00;102059.88;6309323;22;20003;-86
2021/12/22 18:23:04;;;;;;;1.73;1.63;;;;;;;-2.56;100.00;102058.16;6308514;22;20409;-89
2021/12/22 18:25:29;;;;;;;2.65;2.45;;;;;;;-2.59;100.00;102048.56;6281853;22;20014;-88
2021/12/22 18:28:00;;;;;;;2.00;1.90;;;;;;;-2.58;100.00;102057.22;6308918;22;20006;-90
2021/12/22 18:30:26;;;;;;;3.55;1.95;;;;;;;-2.60;100.00;102045.91;6309677;22;20354;-85
2021/12/22 18:32:51;;;;;;;2.40;2.30;;;;;;;-2.45;100.00;102042.03;6311297;22;20016;-84
2021/12/22 18:35:24;;;;;;;2.10;2.00;;;;;;;-2.46;100.00;102031.59;6308057;22;20030;-85
2021/12/22 18:40:49;;;;;;;3.05;2.85;;;;;;;-2.45;100.00;102031.63;6308787;22;20015;-86
2021/12/22 18:43:20;;;;;;;2.10;2.00;;;;;;;-2.45;100.00;102030.72;6308550;22;20000;-83
2021/12/22 18:45:49;;;;;;;2.22;2.13;;;;;;;-2.39;100.00;102020.50;6308795;22;20053;-90
2021/12/22 18:48:16;;;;;;;2.03;1.92;;;;;;;-2.41;100.00;102019.59;6307972;22;20010;-86
2021/12/22 18:50:44;;;;;;;2.50;2.30;;;;;;;-2.34;100.00;102016.31;6308290;22;20003;-84
2021/12/22 18:53:16;;;;;;;2.38;2.28;;;;;;;-2.35;100.00;102006.75;6308658;22;19995;-86
2021/12/22 18:55:42;;;;;;;2.70;2.53;;;;;;;-2.37;100.00;101998.00;6308430;22;20003;-85
2021/12/22 18:58:14;;;;;;;2.10;2.00;;;;;;;-2.38;100.00;101998.88;6308412;22;20003;-85
2021/12/22 19:00:43;;;;;;;2.47;2.33;;;;;;;-2.45;100.00;101996.91;6311406;22;20000;-85
2021/12/22 19:03:08;;;;;;;2.92;2.67;;;;;;;-2.51;100.00;101994.16;6309741;22;20006;-86
2021/12/22 19:06:08;;;;;;;2.00;1.90;;;;;;;-2.38;100.00;101986.72;6308274;22;20390;-86
2021/12/22 19:08:36;;;;;;;1.98;1.88;;;;;;;-2.36;100.00;101984.16;6313557;22;20007;-86
2021/12/22 19:11:43;;;;;;;3.28;2.10;;;;;;;-2.36;100.00;101976.34;6313367;22;20011;-85
2021/12/22 19:14:09;;;;;;;2.45;2.28;;;;;;;-2.27;100.00;101982.69;6308496;22;20047;-86
2021/12/22 19:16:34;;;;;;;2.38;2.28;;;;;;;-2.25;100.00;101977.53;6307452;22;20386;-85
2021/12/22 19:19:06;;;;;;;2.47;2.38;;;;;;;-2.19;100.00;101972.50;6307179;22;20090;-86
2021/12/22 19:21:37;;;;;;;2.15;2.05;;;;;;;-2.14;100.00;101974.38;6308161;22;20439;-85
2021/12/22 19:24:02;;;;;;;2.65;2.45;;;;;;;-2.16;100.00;101976.06;6307513;22;20027;-86
2021/12/22 19:26:28;;;;;;;2.83;2.63;;;;;;;-2.18;100.00;101977.75;6307930;22;20003;-86
2021/12/22 19:29:13;;;;;;;2.03;1.92;;;;;;;-2.01;100.00;101986.00;6307748;22;20006;-86
2021/12/22 19:31:39;;;;;;;2.15;2.05;;;;;;;-2.04;100.00;101989.41;6307119;22;20387;-85
2021/12/22 19:34:04;;;;;;;2.10;2.00;;;;;;;-2.09;100.00;101975.38;6305816;22;20015;-85
2021/12/22 19:36:38;;;;;;;2.50;2.40;;;;;;;-2.06;100.00;101974.56;6307577;22;20024;-86
2021/12/22 19:39:39;;;;;;;1.95;1.85;;;;;;;-2.04;100.00;101970.28;6307906;22;20121;-86
2021/12/22 19:42:16;;;;;;;2.53;2.40;;;;;;;-2.00;100.00;101987.78;6306615;22;20012;-86
2021/12/22 19:44:42;;;;;;;2.50;2.33;;;;;;;-1.88;100.00;101995.88;6308136;22;20003;-86
2021/12/22 19:47:31;;;;;;;3.30;3.10;;;;;;;-1.94;100.00;101996.59;6307689;22;20003;-85
2021/12/22 19:53:17;;;;;;;2.75;2.55;;;;;;;-1.98;100.00;101986.97;6280126;22;20007;-85
2021/12/22 19:55:44;;;;;;;2.78;2.58;;;;;;;-1.94;100.00;101980.13;6307979;22;20095;-85
2021/12/22 19:58:10;;;;;;;2.47;2.38;;;;;;;-2.02;100.00;101979.03;6306945;22;20007;-84
2021/12/22 20:00:37;;;;;;;2.30;2.20;;;;;;;-2.05;100.00;101992.81;6307768;22;20003;-85
2021/12/22 20:03:04;;;;;;;2.22;2.13;;;;;;;-1.93;100.00;101976.66;6307256;22;20539;-87
2021/12/22 20:05:42;;;;;;;2.33;2.22;;;;;;;-1.92;100.00;101965.41;6312665;22;20018;-87
2021/12/22 20:08:08;;;;;;;4.32;3.95;;;;;;;-1.96;100.00;101954.06;6310581;22;20006;-86
